Ironside, Oregon
Current Conditions -  °F | °C
As of 1:53 PM on Sunday 21 Dec 2014 (Local Time) from KBKE Reporting Station
Light Rain Light Rain  
Wind Chill: 37°   Ceiling: 8000
Heat Index: 41°   Visibility: 10mi
Dew Point: 37°   Wind: 6mph
Humidity: 86%   Direction: 220°SW
Pressure: 29.97"   Gusts: NA
Location:  44.32°N, 117.95°W
Report Text: KBKE 212053Z AUTO 22005KT 10SM -RA FEW050 OVC080 05/03 A2997 RMK AO2 SLP158 P0002 60003 T00500028 51016 TSNO
Loading
Personal Weather Stations






























Interactive Weather Map New forecast layout! Learn more

10-Day Weather Forecast

Advertisements
Track Severe Weather on mobile